Empire, Nevada
Current Conditions -  °F | °C
As of 12:53 PM on Tuesday 21 Oct 2014 (Local Time) from KLOL Reporting Station
Clear Clear  
Wind Chill: 57°   Ceiling: Unl
Heat Index: 57°   Visibility: 10mi
Dew Point: 27°   Wind: 0mph
Humidity: 32%   Direction: NA
Pressure: 30.09"   Gusts: NA
Location:  40.58°N, 119.34°W
Report Text: KLOL 211953Z AUTO 00000KT 10SM CLR 14/M03 A3009 RMK AO2 SLP172 T01391028
Loading
Personal Weather Stations






























Interactive Weather Map New forecast layout! Learn more

10-Day Weather Forecast

Advertisements
Track Severe Weather on mobile